sensor_id;sensor_type;location;lat;lon;timestamp;P1;durP1;ratioP1;P2;durP2;ratioP2
13425;SDS011;6785;57.918;12.530;2023-04-12T00:01:27;6.87;;;3.00;;
13425;SDS011;6785;57.918;12.530;2023-04-12T00:03:54;5.80;;;2.50;;
13425;SDS011;6785;57.918;12.530;2023-04-12T00:06:20;6.43;;;2.60;;
13425;SDS011;6785;57.918;12.530;2023-04-12T00:08:56;8.67;;;3.03;;
13425;SDS011;6785;57.918;12.530;2023-04-12T00:11:23;9.23;;;3.23;;
13425;SDS011;6785;57.918;12.530;2023-04-12T00:13:50;6.47;;;2.60;;
13425;SDS011;6785;57.918;12.530;2023-04-12T00:16:18;8.30;;;3.07;;
13425;SDS011;6785;57.918;12.530;2023-04-12T00:18:45;9.57;;;3.60;;
13425;SDS011;6785;57.918;12.530;2023-04-12T00:21:12;7.10;;;2.90;;
13425;SDS011;6785;57.918;12.530;2023-04-12T00:23:43;10.20;;;3.43;;
13425;SDS011;6785;57.918;12.530;2023-04-12T00:26:11;9.53;;;3.77;;
13425;SDS011;6785;57.918;12.530;2023-04-12T00:28:38;4.97;;;2.97;;
13425;SDS011;6785;57.918;12.530;2023-04-12T00:31:05;9.77;;;2.97;;
13425;SDS011;6785;57.918;12.530;2023-04-12T00:33:33;10.57;;;2.87;;
13425;SDS011;6785;57.918;12.530;2023-04-12T00:36:00;6.20;;;2.63;;
13425;SDS011;6785;57.918;12.530;2023-04-12T00:41:01;7.87;;;2.90;;
13425;SDS011;6785;57.918;12.530;2023-04-12T00:43:28;5.57;;;2.97;;
13425;SDS011;6785;57.918;12.530;2023-04-12T00:45:54;12.20;;;3.37;;
13425;SDS011;6785;57.918;12.530;2023-04-12T00:48:22;5.87;;;3.57;;
13425;SDS011;6785;57.918;12.530;2023-04-12T00:50:51;6.73;;;3.23;;
13425;SDS011;6785;57.918;12.530;2023-04-12T00:53:19;7.77;;;3.00;;
13425;SDS011;6785;57.918;12.530;2023-04-12T00:55:48;7.03;;;3.30;;
13425;SDS011;6785;57.918;12.530;2023-04-12T00:58:15;6.00;;;3.17;;
13425;SDS011;6785;57.918;12.530;2023-04-12T01:00:42;4.80;;;3.20;;
13425;SDS011;6785;57.918;12.530;2023-04-12T01:03:14;7.87;;;3.07;;
13425;SDS011;6785;57.918;12.530;2023-04-12T01:05:42;4.80;;;3.10;;
13425;SDS011;6785;57.918;12.530;2023-04-12T01:08:22;4.60;;;2.93;;
13425;SDS011;6785;57.918;12.530;2023-04-12T01:10:54;5.00;;;3.10;;
13425;SDS011;6785;57.918;12.530;2023-04-12T01:13:27;4.83;;;3.13;;
13425;SDS011;6785;57.918;12.530;2023-04-12T01:15:58;6.30;;;3.13;;
13425;SDS011;6785;57.918;12.530;2023-04-12T01:18:32;4.47;;;2.73;;
13425;SDS011;6785;57.918;12.530;2023-04-12T01:21:05;8.97;;;3.27;;
13425;SDS011;6785;57.918;12.530;2023-04-12T01:23:59;6.70;;;2.73;;
13425;SDS011;6785;57.918;12.530;2023-04-12T01:26:30;5.83;;;3.20;;
13425;SDS011;6785;57.918;12.530;2023-04-12T01:29:03;6.27;;;2.70;;
13425;SDS011;6785;57.918;12.530;2023-04-12T01:31:34;5.17;;;3.13;;
13425;SDS011;6785;57.918;12.530;2023-04-12T01:34:05;5.93;;;2.80;;
13425;SDS011;6785;57.918;12.530;2023-04-12T01:36:33;9.63;;;3.23;;
13425;SDS011;6785;57.918;12.530;2023-04-12T01:39:01;5.27;;;2.77;;
13425;SDS011;6785;57.918;12.530;2023-04-12T01:41:30;4.77;;;3.17;;
13425;SDS011;6785;57.918;12.530;2023-04-12T01:43:58;9.63;;;3.40;;
13425;SDS011;6785;57.918;12.530;2023-04-12T01:46:26;7.93;;;3.20;;
13425;SDS011;6785;57.918;12.530;2023-04-12T01:48:52;8.10;;;3.03;;
13425;SDS011;6785;57.918;12.530;2023-04-12T01:51:25;9.43;;;3.17;;
13425;SDS011;6785;57.918;12.530;2023-04-12T01:53:58;4.50;;;3.27;;
13425;SDS011;6785;57.918;12.530;2023-04-12T01:56:29;4.93;;;3.17;;
13425;SDS011;6785;57.918;12.530;2023-04-12T01:58:59;6.47;;;3.00;;
13425;SDS011;6785;57.918;12.530;2023-04-12T02:01:29;12.47;;;3.03;;
13425;SDS011;6785;57.918;12.530;2023-04-12T02:03:56;9.63;;;2.87;;
13425;SDS011;6785;57.918;12.530;2023-04-12T02:06:24;4.17;;;2.87;;
13425;SDS011;6785;57.918;12.530;2023-04-12T02:08:55;4.27;;;2.90;;
13425;SDS011;6785;57.918;12.530;2023-04-12T02:11:23;7.17;;;3.00;;
13425;SDS011;6785;57.918;12.530;2023-04-12T02:13:50;9.50;;;3.10;;
13425;SDS011;6785;57.918;12.530;2023-04-12T02:16:17;6.40;;;3.27;;
13425;SDS011;6785;57.918;12.530;2023-04-12T02:18:45;5.63;;;3.10;;
13425;SDS011;6785;57.918;12.530;2023-04-12T02:21:12;10.17;;;5.87;;
13425;SDS011;6785;57.918;12.530;2023-04-12T02:23:39;12.07;;;7.53;;
13425;SDS011;6785;57.918;12.530;2023-04-12T02:26:08;8.93;;;4.87;;
13425;SDS011;6785;57.918;12.530;2023-04-12T02:28:34;5.40;;;3.73;;
13425;SDS011;6785;57.918;12.530;2023-04-12T02:31:02;11.43;;;3.73;;
13425;SDS011;6785;57.918;12.530;2023-04-12T02:33:29;8.20;;;3.87;;
13425;SDS011;6785;57.918;12.530;2023-04-12T02:35:58;11.70;;;7.73;;
13425;SDS011;6785;57.918;12.530;2023-04-12T02:38:26;7.33;;;5.80;;
13425;SDS011;6785;57.918;12.530;2023-04-12T02:40:53;12.83;;;4.87;;
13425;SDS011;6785;57.918;12.530;2023-04-12T02:43:20;18.47;;;5.63;;
13425;SDS011;6785;57.918;12.530;2023-04-12T02:45:46;7.80;;;4.73;;
13425;SDS011;6785;57.918;12.530;2023-04-12T02:48:13;8.93;;;4.80;;
13425;SDS011;6785;57.918;12.530;2023-04-12T02:50:40;7.30;;;4.13;;
13425;SDS011;6785;57.918;12.530;2023-04-12T02:53:08;5.70;;;3.90;;
13425;SDS011;6785;57.918;12.530;2023-04-12T02:55:35;5.57;;;3.67;;
13425;SDS011;6785;57.918;12.530;2023-04-12T02:58:04;9.97;;;3.47;;
13425;SDS011;6785;57.918;12.530;2023-04-12T03:00:31;12.77;;;2.97;;
13425;SDS011;6785;57.918;12.530;2023-04-12T03:02:58;13.73;;;3.27;;
13425;SDS011;6785;57.918;12.530;2023-04-12T03:05:25;30.83;;;4.20;;
13425;SDS011;6785;57.918;12.530;2023-04-12T03:07:52;26.03;;;3.10;;
13425;SDS011;6785;57.918;12.530;2023-04-12T03:10:20;68.10;;;6.53;;
13425;SDS011;6785;57.918;12.530;2023-04-12T03:12:47;49.70;;;7.27;;
13425;SDS011;6785;57.918;12.530;2023-04-12T03:15:14;54.30;;;7.37;;
13425;SDS011;6785;57.918;12.530;2023-04-12T03:17:41;48.30;;;6.57;;
13425;SDS011;6785;57.918;12.530;2023-04-12T03:20:08;72.43;;;7.80;;
13425;SDS011;6785;57.918;12.530;2023-04-12T03:22:36;30.87;;;5.23;;
13425;SDS011;6785;57.918;12.530;2023-04-12T03:25:02;39.17;;;4.63;;
13425;SDS011;6785;57.918;12.530;2023-04-12T03:27:31;21.13;;;3.17;;
13425;SDS011;6785;57.918;12.530;2023-04-12T03:29:58;15.57;;;2.80;;
13425;SDS011;6785;57.918;12.530;2023-04-12T03:32:24;17.70;;;3.27;;
13425;SDS011;6785;57.918;12.530;2023-04-12T03:34:51;8.70;;;2.73;;
13425;SDS011;6785;57.918;12.530;2023-04-12T03:37:18;6.50;;;2.63;;
13425;SDS011;6785;57.918;12.530;2023-04-12T03:39:44;4.20;;;2.30;;
13425;SDS011;6785;57.918;12.530;2023-04-12T03:42:12;7.50;;;2.30;;
13425;SDS011;6785;57.918;12.530;2023-04-12T03:44:40;5.43;;;2.70;;
13425;SDS011;6785;57.918;12.530;2023-04-12T03:47:07;6.13;;;3.00;;
13425;SDS011;6785;57.918;12.530;2023-04-12T03:49:35;5.13;;;2.80;;
13425;SDS011;6785;57.918;12.530;2023-04-12T03:52:02;3.20;;;2.20;;
13425;SDS011;6785;57.918;12.530;2023-04-12T03:54:29;7.07;;;2.60;;
13425;SDS011;6785;57.918;12.530;2023-04-12T03:56:56;5.27;;;2.53;;
13425;SDS011;6785;57.918;12.530;2023-04-12T03:59:23;5.33;;;2.67;;
13425;SDS011;6785;57.918;12.530;2023-04-12T04:01:51;8.10;;;2.90;;
13425;SDS011;6785;57.918;12.530;2023-04-12T04:04:18;55.07;;;8.10;;
13425;SDS011;6785;57.918;12.530;2023-04-12T04:06:45;156.47;;;13.77;;
13425;SDS011;6785;57.918;12.530;2023-04-12T04:09:12;103.40;;;9.83;;
13425;SDS011;6785;57.918;12.530;2023-04-12T04:11:39;68.63;;;7.07;;
13425;SDS011;6785;57.918;12.530;2023-04-12T04:14:06;186.47;;;15.00;;
13425;SDS011;6785;57.918;12.530;2023-04-12T04:16:32;156.00;;;12.73;;
13425;SDS011;6785;57.918;12.530;2023-04-12T04:19:01;76.40;;;7.30;;
13425;SDS011;6785;57.918;12.530;2023-04-12T04:21:27;68.10;;;8.13;;
13425;SDS011;6785;57.918;12.530;2023-04-12T04:23:57;79.27;;;7.90;;
13425;SDS011;6785;57.918;12.530;2023-04-12T04:26:25;80.27;;;9.23;;
13425;SDS011;6785;57.918;12.530;2023-04-12T04:28:56;66.80;;;5.90;;
13425;SDS011;6785;57.918;12.530;2023-04-12T04:31:26;94.00;;;8.10;;
13425;SDS011;6785;57.918;12.530;2023-04-12T04:33:58;98.90;;;9.10;;
13425;SDS011;6785;57.918;12.530;2023-04-12T04:36:27;49.33;;;7.60;;
13425;SDS011;6785;57.918;12.530;2023-04-12T04:38:54;56.23;;;7.43;;
13425;SDS011;6785;57.918;12.530;2023-04-12T04:41:22;62.73;;;6.17;;
13425;SDS011;6785;57.918;12.530;2023-04-12T04:43:49;91.10;;;7.93;;
13425;SDS011;6785;57.918;12.530;2023-04-12T04:46:15;46.17;;;5.17;;
13425;SDS011;6785;57.918;12.530;2023-04-12T04:48:45;51.67;;;5.20;;
13425;SDS011;6785;57.918;12.530;2023-04-12T04:51:13;64.17;;;5.97;;
13425;SDS011;6785;57.918;12.530;2023-04-12T04:53:40;42.27;;;6.30;;
13425;SDS011;6785;57.918;12.530;2023-04-12T04:56:07;30.20;;;4.73;;
13425;SDS011;6785;57.918;12.530;2023-04-12T04:58:34;132.20;;;11.07;;
13425;SDS011;6785;57.918;12.530;2023-04-12T05:01:01;140.07;;;10.70;;
13425;SDS011;6785;57.918;12.530;2023-04-12T05:03:29;154.87;;;11.23;;
13425;SDS011;6785;57.918;12.530;2023-04-12T05:05:58;161.57;;;15.50;;
13425;SDS011;6785;57.918;12.530;2023-04-12T05:08:26;98.07;;;8.03;;
13425;SDS011;6785;57.918;12.530;2023-04-12T05:10:53;234.50;;;17.00;;
13425;SDS011;6785;57.918;12.530;2023-04-12T05:13:21;169.03;;;14.83;;
13425;SDS011;6785;57.918;12.530;2023-04-12T05:15:48;231.90;;;15.43;;
13425;SDS011;6785;57.918;12.530;2023-04-12T05:18:15;207.43;;;15.67;;
13425;SDS011;6785;57.918;12.530;2023-04-12T05:20:42;174.50;;;14.07;;
13425;SDS011;6785;57.918;12.530;2023-04-12T05:23:09;103.20;;;10.40;;
13425;SDS011;6785;57.918;12.530;2023-04-12T05:25:42;63.87;;;6.97;;
13425;SDS011;6785;57.918;12.530;2023-04-12T05:28:11;54.63;;;5.73;;
13425;SDS011;6785;57.918;12.530;2023-04-12T05:30:38;67.20;;;7.70;;
13425;SDS011;6785;57.918;12.530;2023-04-12T05:33:05;9.40;;;3.37;;
13425;SDS011;6785;57.918;12.530;2023-04-12T05:35:32;15.97;;;3.33;;
13425;SDS011;6785;57.918;12.530;2023-04-12T05:37:59;44.70;;;6.77;;
13425;SDS011;6785;57.918;12.530;2023-04-12T05:40:25;12.47;;;3.47;;
13425;SDS011;6785;57.918;12.530;2023-04-12T05:42:53;5.27;;;3.00;;
13425;SDS011;6785;57.918;12.530;2023-04-12T05:45:20;8.53;;;3.30;;
13425;SDS011;6785;57.918;12.530;2023-04-12T05:47:47;8.00;;;3.73;;
13425;SDS011;6785;57.918;12.530;2023-04-12T05:50:14;6.90;;;3.23;;
13425;SDS011;6785;57.918;12.530;2023-04-12T05:52:40;4.70;;;2.97;;
13425;SDS011;6785;57.918;12.530;2023-04-12T05:55:07;7.63;;;3.10;;
13425;SDS011;6785;57.918;12.530;2023-04-12T05:57:34;5.17;;;2.83;;
13425;SDS011;6785;57.918;12.530;2023-04-12T06:00:02;5.33;;;3.30;;
13425;SDS011;6785;57.918;12.530;2023-04-12T06:02:32;4.17;;;3.07;;
13425;SDS011;6785;57.918;12.530;2023-04-12T06:04:59;4.33;;;3.20;;
13425;SDS011;6785;57.918;12.530;2023-04-12T06:07:27;3.83;;;3.20;;
13425;SDS011;6785;57.918;12.530;2023-04-12T06:09:54;4.23;;;3.03;;
13425;SDS011;6785;57.918;12.530;2023-04-12T06:12:20;4.67;;;2.90;;
13425;SDS011;6785;57.918;12.530;2023-04-12T06:14:47;5.00;;;2.97;;
13425;SDS011;6785;57.918;12.530;2023-04-12T06:17:15;5.33;;;2.80;;
13425;SDS011;6785;57.918;12.530;2023-04-12T06:19:42;3.63;;;2.90;;
13425;SDS011;6785;57.918;12.530;2023-04-12T06:22:09;4.77;;;2.97;;
13425;SDS011;6785;57.918;12.530;2023-04-12T06:24:36;4.60;;;2.90;;
13425;SDS011;6785;57.918;12.530;2023-04-12T06:27:03;6.73;;;3.07;;
13425;SDS011;6785;57.918;12.530;2023-04-12T06:29:30;5.50;;;2.70;;
13425;SDS011;6785;57.918;12.530;2023-04-12T06:31:56;5.57;;;3.67;;
13425;SDS011;6785;57.918;12.530;2023-04-12T06:34:25;4.37;;;3.07;;
13425;SDS011;6785;57.918;12.530;2023-04-12T06:36:52;6.60;;;2.87;;
13425;SDS011;6785;57.918;12.530;2023-04-12T06:39:19;5.73;;;3.13;;
13425;SDS011;6785;57.918;12.530;2023-04-12T06:41:45;5.20;;;2.83;;
13425;SDS011;6785;57.918;12.530;2023-04-12T06:44:14;3.97;;;3.00;;
13425;SDS011;6785;57.918;12.530;2023-04-12T06:46:41;3.67;;;3.07;;
13425;SDS011;6785;57.918;12.530;2023-04-12T06:49:07;4.30;;;3.13;;
13425;SDS011;6785;57.918;12.530;2023-04-12T06:51:36;4.37;;;3.43;;
13425;SDS011;6785;57.918;12.530;2023-04-12T06:54:03;4.63;;;2.80;;
13425;SDS011;6785;57.918;12.530;2023-04-12T06:56:30;12.13;;;3.30;;
13425;SDS011;6785;57.918;12.530;2023-04-12T06:58:56;4.60;;;3.10;;
13425;SDS011;6785;57.918;12.530;2023-04-12T07:01:23;4.73;;;2.50;;
13425;SDS011;6785;57.918;12.530;2023-04-12T07:03:50;5.40;;;2.87;;
13425;SDS011;6785;57.918;12.530;2023-04-12T07:06:17;3.20;;;2.30;;
13425;SDS011;6785;57.918;12.530;2023-04-12T07:08:45;7.43;;;2.20;;
13425;SDS011;6785;57.918;12.530;2023-04-12T07:11:14;3.43;;;2.20;;
13425;SDS011;6785;57.918;12.530;2023-04-12T07:13:41;3.00;;;1.93;;
13425;SDS011;6785;57.918;12.530;2023-04-12T07:16:08;4.80;;;2.10;;
13425;SDS011;6785;57.918;12.530;2023-04-12T07:18:35;3.80;;;2.20;;
13425;SDS011;6785;57.918;12.530;2023-04-12T07:21:04;1.97;;;1.73;;
13425;SDS011;6785;57.918;12.530;2023-04-12T07:23:31;4.20;;;1.90;;
13425;SDS011;6785;57.918;12.530;2023-04-12T07:25:59;5.83;;;1.70;;
13425;SDS011;6785;57.918;12.530;2023-04-12T07:28:26;2.77;;;1.90;;
13425;SDS011;6785;57.918;12.530;2023-04-12T07:30:53;3.10;;;2.03;;
13425;SDS011;6785;57.918;12.530;2023-04-12T07:33:20;4.37;;;2.07;;
13425;SDS011;6785;57.918;12.530;2023-04-12T07:35:47;3.13;;;2.20;;
13425;SDS011;6785;57.918;12.530;2023-04-12T07:38:13;3.70;;;1.77;;
13425;SDS011;6785;57.918;12.530;2023-04-12T07:40:40;4.73;;;2.10;;
13425;SDS011;6785;57.918;12.530;2023-04-12T07:43:08;2.03;;;1.50;;
13425;SDS011;6785;57.918;12.530;2023-04-12T07:45:35;3.17;;;1.90;;
13425;SDS011;6785;57.918;12.530;2023-04-12T07:48:02;2.13;;;1.93;;
13425;SDS011;6785;57.918;12.530;2023-04-12T07:50:29;5.23;;;1.80;;
13425;SDS011;6785;57.918;12.530;2023-04-12T07:52:56;3.30;;;1.63;;
13425;SDS011;6785;57.918;12.530;2023-04-12T07:55:42;4.97;;;1.80;;
13425;SDS011;6785;57.918;12.530;2023-04-12T07:58:10;3.50;;;1.70;;
13425;SDS011;6785;57.918;12.530;2023-04-12T08:00:37;3.33;;;1.73;;
13425;SDS011;6785;57.918;12.530;2023-04-12T08:03:03;7.57;;;1.70;;
13425;SDS011;6785;57.918;12.530;2023-04-12T08:05:30;5.20;;;1.77;;
13425;SDS011;6785;57.918;12.530;2023-04-12T08:07:57;6.10;;;1.60;;
13425;SDS011;6785;57.918;12.530;2023-04-12T08:10:23;3.40;;;1.33;;
13425;SDS011;6785;57.918;12.530;2023-04-12T08:12:50;3.63;;;1.60;;
13425;SDS011;6785;57.918;12.530;2023-04-12T08:15:18;5.43;;;1.80;;
13425;SDS011;6785;57.918;12.530;2023-04-12T08:17:45;7.50;;;2.23;;
13425;SDS011;6785;57.918;12.530;2023-04-12T08:20:12;6.30;;;1.90;;
13425;SDS011;6785;57.918;12.530;2023-04-12T08:22:40;5.73;;;2.07;;
13425;SDS011;6785;57.918;12.530;2023-04-12T08:25:07;7.07;;;1.80;;
13425;SDS011;6785;57.918;12.530;2023-04-12T08:27:34;7.50;;;1.70;;
13425;SDS011;6785;57.918;12.530;2023-04-12T08:30:01;6.43;;;1.83;;
13425;SDS011;6785;57.918;12.530;2023-04-12T08:32:30;5.27;;;1.80;;
13425;SDS011;6785;57.918;12.530;2023-04-12T08:34:56;6.63;;;2.13;;
13425;SDS011;6785;57.918;12.530;2023-04-12T08:37:24;6.13;;;1.80;;
13425;SDS011;6785;57.918;12.530;2023-04-12T08:39:50;2.27;;;1.60;;
13425;SDS011;6785;57.918;12.530;2023-04-12T08:42:17;8.33;;;2.30;;
13425;SDS011;6785;57.918;12.530;2023-04-12T08:44:44;6.53;;;1.90;;
13425;SDS011;6785;57.918;12.530;2023-04-12T08:47:11;5.83;;;1.80;;
13425;SDS011;6785;57.918;12.530;2023-04-12T08:49:39;4.87;;;1.90;;
13425;SDS011;6785;57.918;12.530;2023-04-12T08:52:06;7.23;;;1.97;;
13425;SDS011;6785;57.918;12.530;2023-04-12T08:54:34;6.53;;;2.23;;
13425;SDS011;6785;57.918;12.530;2023-04-12T08:57:02;9.17;;;1.83;;
13425;SDS011;6785;57.918;12.530;2023-04-12T08:59:32;6.70;;;1.80;;
13425;SDS011;6785;57.918;12.530;2023-04-12T09:02:02;4.47;;;1.67;;
13425;SDS011;6785;57.918;12.530;2023-04-12T09:04:29;7.17;;;2.00;;
13425;SDS011;6785;57.918;12.530;2023-04-12T09:06:57;6.77;;;2.03;;
13425;SDS011;6785;57.918;12.530;2023-04-12T09:09:39;5.33;;;1.50;;
13425;SDS011;6785;57.918;12.530;2023-04-12T09:12:06;5.77;;;1.87;;
13425;SDS011;6785;57.918;12.530;2023-04-12T09:14:33;6.80;;;2.43;;
13425;SDS011;6785;57.918;12.530;2023-04-12T09:17:00;6.90;;;2.13;;
13425;SDS011;6785;57.918;12.530;2023-04-12T09:19:30;4.80;;;1.77;;
13425;SDS011;6785;57.918;12.530;2023-04-12T09:21:59;5.50;;;2.00;;
13425;SDS011;6785;57.918;12.530;2023-04-12T09:24:26;4.57;;;1.90;;
13425;SDS011;6785;57.918;12.530;2023-04-12T09:27:00;5.63;;;1.40;;
13425;SDS011;6785;57.918;12.530;2023-04-12T09:29:28;3.77;;;2.03;;
13425;SDS011;6785;57.918;12.530;2023-04-12T09:31:56;5.50;;;2.13;;
13425;SDS011;6785;57.918;12.530;2023-04-12T09:34:26;8.30;;;1.87;;
13425;SDS011;6785;57.918;12.530;2023-04-12T09:36:53;4.43;;;1.70;;
13425;SDS011;6785;57.918;12.530;2023-04-12T09:39:21;6.07;;;1.70;;
13425;SDS011;6785;57.918;12.530;2023-04-12T09:42:02;7.13;;;1.87;;
13425;SDS011;6785;57.918;12.530;2023-04-12T09:44:30;6.03;;;1.83;;
13425;SDS011;6785;57.918;12.530;2023-04-12T09:46:58;9.03;;;2.30;;
13425;SDS011;6785;57.918;12.530;2023-04-12T09:49:35;12.77;;;1.93;;
13425;SDS011;6785;57.918;12.530;2023-04-12T09:52:04;8.93;;;2.07;;
13425;SDS011;6785;57.918;12.530;2023-04-12T09:54:33;7.50;;;1.87;;
13425;SDS011;6785;57.918;12.530;2023-04-12T09:57:03;3.57;;;1.73;;
13425;SDS011;6785;57.918;12.530;2023-04-12T09:59:33;8.57;;;2.43;;
13425;SDS011;6785;57.918;12.530;2023-04-12T10:02:03;5.50;;;1.87;;
13425;SDS011;6785;57.918;12.530;2023-04-12T10:04:34;6.17;;;2.03;;
13425;SDS011;6785;57.918;12.530;2023-04-12T10:07:02;7.33;;;2.23;;
13425;SDS011;6785;57.918;12.530;2023-04-12T10:09:30;7.63;;;2.50;;
13425;SDS011;6785;57.918;12.530;2023-04-12T10:12:00;7.77;;;1.67;;
13425;SDS011;6785;57.918;12.530;2023-04-12T10:14:28;8.17;;;2.50;;
13425;SDS011;6785;57.918;12.530;2023-04-12T10:16:56;6.33;;;2.20;;
13425;SDS011;6785;57.918;12.530;2023-04-12T10:19:24;8.03;;;2.20;;
13425;SDS011;6785;57.918;12.530;2023-04-12T10:21:53;5.63;;;2.00;;
13425;SDS011;6785;57.918;12.530;2023-04-12T10:24:20;8.23;;;2.30;;
13425;SDS011;6785;57.918;12.530;2023-04-12T10:26:49;6.03;;;1.80;;
13425;SDS011;6785;57.918;12.530;2023-04-12T10:29:21;8.97;;;2.30;;
13425;SDS011;6785;57.918;12.530;2023-04-12T10:31:51;8.63;;;2.50;;
13425;SDS011;6785;57.918;12.530;2023-04-12T10:34:22;6.63;;;1.80;;
13425;SDS011;6785;57.918;12.530;2023-04-12T10:36:50;5.33;;;1.90;;
13425;SDS011;6785;57.918;12.530;2023-04-12T10:39:19;5.23;;;1.97;;
13425;SDS011;6785;57.918;12.530;2023-04-12T10:42:15;6.07;;;2.10;;
13425;SDS011;6785;57.918;12.530;2023-04-12T10:44:47;7.27;;;2.43;;
13425;SDS011;6785;57.918;12.530;2023-04-12T10:47:16;4.07;;;1.97;;
13425;SDS011;6785;57.918;12.530;2023-04-12T10:50:20;6.90;;;2.10;;
13425;SDS011;6785;57.918;12.530;2023-04-12T10:55:51;4.77;;;1.67;;
13425;SDS011;6785;57.918;12.530;2023-04-12T11:01:21;6.07;;;1.70;;
13425;SDS011;6785;57.918;12.530;2023-04-12T11:04:03;4.97;;;1.80;;
13425;SDS011;6785;57.918;12.530;2023-04-12T11:06:54;6.73;;;1.90;;
13425;SDS011;6785;57.918;12.530;2023-04-12T11:09:23;6.80;;;1.90;;
13425;SDS011;6785;57.918;12.530;2023-04-12T11:11:51;3.40;;;1.20;;
13425;SDS011;6785;57.918;12.530;2023-04-12T11:14:27;5.80;;;1.67;;
13425;SDS011;6785;57.918;12.530;2023-04-12T11:19:45;4.53;;;1.60;;
13425;SDS011;6785;57.918;12.530;2023-04-12T11:22:16;6.87;;;2.10;;
13425;SDS011;6785;57.918;12.530;2023-04-12T11:24:45;3.33;;;1.40;;
13425;SDS011;6785;57.918;12.530;2023-04-12T11:27:13;3.33;;;1.47;;
13425;SDS011;6785;57.918;12.530;2023-04-12T11:32:18;6.03;;;1.50;;
13425;SDS011;6785;57.918;12.530;2023-04-12T11:34:46;3.37;;;1.40;;
13425;SDS011;6785;57.918;12.530;2023-04-12T11:37:12;3.10;;;1.40;;
13425;SDS011;6785;57.918;12.530;2023-04-12T11:39:40;3.00;;;1.50;;
13425;SDS011;6785;57.918;12.530;2023-04-12T11:42:13;5.73;;;1.60;;
13425;SDS011;6785;57.918;12.530;2023-04-12T11:44:41;4.30;;;1.27;;
13425;SDS011;6785;57.918;12.530;2023-04-12T11:47:12;4.53;;;1.70;;
13425;SDS011;6785;57.918;12.530;2023-04-12T11:49:47;5.13;;;2.17;;
13425;SDS011;6785;57.918;12.530;2023-04-12T11:52:15;7.63;;;1.80;;
13425;SDS011;6785;57.918;12.530;2023-04-12T11:54:43;9.57;;;3.30;;
13425;SDS011;6785;57.918;12.530;2023-04-12T11:57:11;3.83;;;1.37;;
13425;SDS011;6785;57.918;12.530;2023-04-12T11:59:39;5.87;;;1.50;;
13425;SDS011;6785;57.918;12.530;2023-04-12T12:02:07;5.90;;;1.50;;
13425;SDS011;6785;57.918;12.530;2023-04-12T12:04:35;5.07;;;1.50;;
13425;SDS011;6785;57.918;12.530;2023-04-12T12:07:04;3.23;;;1.50;;
13425;SDS011;6785;57.918;12.530;2023-04-12T12:09:32;3.43;;;1.40;;
13425;SDS011;6785;57.918;12.530;2023-04-12T12:12:06;5.53;;;1.30;;
13425;SDS011;6785;57.918;12.530;2023-04-12T12:14:33;2.67;;;1.17;;
13425;SDS011;6785;57.918;12.530;2023-04-12T12:20:01;3.07;;;1.20;;
13425;SDS011;6785;57.918;12.530;2023-04-12T12:22:30;8.50;;;1.63;;
13425;SDS011;6785;57.918;12.530;2023-04-12T12:25:00;4.13;;;1.53;;
13425;SDS011;6785;57.918;12.530;2023-04-12T12:27:32;3.70;;;1.37;;
13425;SDS011;6785;57.918;12.530;2023-04-12T12:30:00;4.50;;;1.47;;
13425;SDS011;6785;57.918;12.530;2023-04-12T12:32:41;5.37;;;1.63;;
13425;SDS011;6785;57.918;12.530;2023-04-12T12:35:09;5.50;;;1.50;;
13425;SDS011;6785;57.918;12.530;2023-04-12T12:37:46;2.77;;;1.60;;
13425;SDS011;6785;57.918;12.530;2023-04-12T12:40:14;5.13;;;2.77;;
13425;SDS011;6785;57.918;12.530;2023-04-12T12:42:44;3.30;;;1.80;;
13425;SDS011;6785;57.918;12.530;2023-04-12T12:45:12;4.00;;;1.67;;
13425;SDS011;6785;57.918;12.530;2023-04-12T12:47:46;2.80;;;1.50;;
13425;SDS011;6785;57.918;12.530;2023-04-12T12:50:14;2.87;;;1.27;;
13425;SDS011;6785;57.918;12.530;2023-04-12T12:52:43;4.33;;;1.63;;
13425;SDS011;6785;57.918;12.530;2023-04-12T12:55:11;4.97;;;1.57;;
13425;SDS011;6785;57.918;12.530;2023-04-12T12:57:38;1.57;;;1.30;;
13425;SDS011;6785;57.918;12.530;2023-04-12T13:00:05;2.03;;;1.20;;
13425;SDS011;6785;57.918;12.530;2023-04-12T13:02:34;2.83;;;1.30;;
13425;SDS011;6785;57.918;12.530;2023-04-12T13:05:01;4.47;;;1.40;;
13425;SDS011;6785;57.918;12.530;2023-04-12T13:07:28;7.03;;;1.63;;
13425;SDS011;6785;57.918;12.530;2023-04-12T13:09:56;5.63;;;1.50;;
13425;SDS011;6785;57.918;12.530;2023-04-12T13:12:23;3.67;;;1.23;;
13425;SDS011;6785;57.918;12.530;2023-04-12T13:14:50;6.13;;;1.90;;
13425;SDS011;6785;57.918;12.530;2023-04-12T13:17:17;3.70;;;1.30;;
13425;SDS011;6785;57.918;12.530;2023-04-12T13:19:44;5.40;;;1.90;;
13425;SDS011;6785;57.918;12.530;2023-04-12T13:22:11;4.43;;;1.20;;
13425;SDS011;6785;57.918;12.530;2023-04-12T13:24:38;6.07;;;1.37;;
13425;SDS011;6785;57.918;12.530;2023-04-12T13:27:06;5.17;;;1.60;;
13425;SDS011;6785;57.918;12.530;2023-04-12T13:29:33;5.37;;;2.00;;
13425;SDS011;6785;57.918;12.530;2023-04-12T13:32:00;4.87;;;1.60;;
13425;SDS011;6785;57.918;12.530;2023-04-12T13:34:27;3.87;;;1.60;;
13425;SDS011;6785;57.918;12.530;2023-04-12T13:36:53;4.80;;;1.80;;
13425;SDS011;6785;57.918;12.530;2023-04-12T13:39:20;5.47;;;2.67;;
13425;SDS011;6785;57.918;12.530;2023-04-12T13:41:47;4.60;;;1.90;;
13425;SDS011;6785;57.918;12.530;2023-04-12T13:44:15;3.60;;;1.23;;
13425;SDS011;6785;57.918;12.530;2023-04-12T13:46:42;4.47;;;1.33;;
13425;SDS011;6785;57.918;12.530;2023-04-12T13:49:08;4.00;;;1.43;;
13425;SDS011;6785;57.918;12.530;2023-04-12T13:51:35;2.40;;;1.20;;
13425;SDS011;6785;57.918;12.530;2023-04-12T13:54:02;4.80;;;1.50;;
13425;SDS011;6785;57.918;12.530;2023-04-12T13:56:29;4.00;;;1.33;;
13425;SDS011;6785;57.918;12.530;2023-04-12T13:58:56;5.17;;;1.03;;
13425;SDS011;6785;57.918;12.530;2023-04-12T14:01:24;3.73;;;1.40;;
13425;SDS011;6785;57.918;12.530;2023-04-12T14:03:51;6.63;;;1.60;;
13425;SDS011;6785;57.918;12.530;2023-04-12T14:06:18;3.47;;;1.40;;
13425;SDS011;6785;57.918;12.530;2023-04-12T14:08:45;2.83;;;1.20;;
13425;SDS011;6785;57.918;12.530;2023-04-12T14:11:12;5.00;;;1.47;;
13425;SDS011;6785;57.918;12.530;2023-04-12T14:13:38;4.10;;;1.57;;
13425;SDS011;6785;57.918;12.530;2023-04-12T14:16:05;4.27;;;1.20;;
13425;SDS011;6785;57.918;12.530;2023-04-12T14:18:34;3.83;;;1.27;;
13425;SDS011;6785;57.918;12.530;2023-04-12T14:21:00;2.53;;;1.20;;
13425;SDS011;6785;57.918;12.530;2023-04-12T14:23:28;5.80;;;1.33;;
13425;SDS011;6785;57.918;12.530;2023-04-12T14:25:54;2.90;;;1.23;;
13425;SDS011;6785;57.918;12.530;2023-04-12T14:28:21;2.13;;;1.13;;
13425;SDS011;6785;57.918;12.530;2023-04-12T14:30:54;2.07;;;1.40;;
13425;SDS011;6785;57.918;12.530;2023-04-12T14:33:21;2.03;;;1.27;;
13425;SDS011;6785;57.918;12.530;2023-04-12T14:35:50;4.10;;;1.27;;
13425;SDS011;6785;57.918;12.530;2023-04-12T14:38:17;2.43;;;1.33;;
13425;SDS011;6785;57.918;12.530;2023-04-12T14:40:44;2.47;;;1.20;;
13425;SDS011;6785;57.918;12.530;2023-04-12T14:43:11;5.27;;;1.30;;
13425;SDS011;6785;57.918;12.530;2023-04-12T14:45:37;2.77;;;1.50;;
13425;SDS011;6785;57.918;12.530;2023-04-12T14:48:04;2.40;;;1.17;;
13425;SDS011;6785;57.918;12.530;2023-04-12T14:50:31;3.80;;;1.20;;
13425;SDS011;6785;57.918;12.530;2023-04-12T14:52:59;4.90;;;1.10;;
13425;SDS011;6785;57.918;12.530;2023-04-12T14:55:26;1.90;;;1.17;;
13425;SDS011;6785;57.918;12.530;2023-04-12T14:57:52;2.33;;;1.13;;
13425;SDS011;6785;57.918;12.530;2023-04-12T15:00:19;2.03;;;1.10;;
13425;SDS011;6785;57.918;12.530;2023-04-12T15:02:47;3.83;;;1.20;;
13425;SDS011;6785;57.918;12.530;2023-04-12T15:05:14;5.17;;;1.27;;
13425;SDS011;6785;57.918;12.530;2023-04-12T15:07:40;2.87;;;1.00;;